sensor_id;sensor_type;location;lat;lon;timestamp;P1;durP1;ratioP1;P2;durP2;ratioP2
14849;SDS011;7517;48.400;11.770;2022-12-18T00:01:20;40.97;;;23.83;;
14849;SDS011;7517;48.400;11.770;2022-12-18T00:03:50;39.50;;;23.27;;
14849;SDS011;7517;48.400;11.770;2022-12-18T00:06:18;36.30;;;21.70;;
14849;SDS011;7517;48.400;11.770;2022-12-18T00:08:46;37.50;;;20.93;;
14849;SDS011;7517;48.400;11.770;2022-12-18T00:11:15;39.13;;;21.33;;
14849;SDS011;7517;48.400;11.770;2022-12-18T00:13:46;37.83;;;21.63;;
14849;SDS011;7517;48.400;11.770;2022-12-18T00:16:15;34.10;;;21.33;;
14849;SDS011;7517;48.400;11.770;2022-12-18T00:18:45;39.50;;;21.83;;
14849;SDS011;7517;48.400;11.770;2022-12-18T00:21:14;35.37;;;20.53;;
14849;SDS011;7517;48.400;11.770;2022-12-18T00:23:42;34.10;;;19.90;;
14849;SDS011;7517;48.400;11.770;2022-12-18T00:26:13;35.17;;;20.17;;
14849;SDS011;7517;48.400;11.770;2022-12-18T00:28:43;34.60;;;19.87;;
14849;SDS011;7517;48.400;11.770;2022-12-18T00:31:13;36.10;;;20.33;;
14849;SDS011;7517;48.400;11.770;2022-12-18T00:33:43;34.37;;;20.53;;
14849;SDS011;7517;48.400;11.770;2022-12-18T00:36:12;32.80;;;20.37;;
14849;SDS011;7517;48.400;11.770;2022-12-18T00:38:41;35.20;;;21.07;;
14849;SDS011;7517;48.400;11.770;2022-12-18T00:41:09;33.37;;;20.13;;
14849;SDS011;7517;48.400;11.770;2022-12-18T00:43:39;33.30;;;19.70;;
14849;SDS011;7517;48.400;11.770;2022-12-18T00:46:07;35.43;;;21.37;;
14849;SDS011;7517;48.400;11.770;2022-12-18T00:48:34;34.13;;;19.87;;
14849;SDS011;7517;48.400;11.770;2022-12-18T00:51:01;37.10;;;19.87;;
14849;SDS011;7517;48.400;11.770;2022-12-18T00:53:29;33.53;;;19.07;;
14849;SDS011;7517;48.400;11.770;2022-12-18T00:55:56;35.73;;;19.73;;
14849;SDS011;7517;48.400;11.770;2022-12-18T00:58:24;33.30;;;19.80;;
14849;SDS011;7517;48.400;11.770;2022-12-18T01:00:51;33.93;;;19.43;;
14849;SDS011;7517;48.400;11.770;2022-12-18T01:03:20;33.67;;;19.87;;
14849;SDS011;7517;48.400;11.770;2022-12-18T01:05:47;35.90;;;20.23;;
14849;SDS011;7517;48.400;11.770;2022-12-18T01:08:14;34.13;;;19.87;;
14849;SDS011;7517;48.400;11.770;2022-12-18T01:10:41;30.77;;;19.17;;
14849;SDS011;7517;48.400;11.770;2022-12-18T01:13:09;33.50;;;19.57;;
14849;SDS011;7517;48.400;11.770;2022-12-18T01:15:36;35.40;;;21.30;;
14849;SDS011;7517;48.400;11.770;2022-12-18T01:18:03;33.60;;;20.43;;
14849;SDS011;7517;48.400;11.770;2022-12-18T01:20:32;35.40;;;20.23;;
14849;SDS011;7517;48.400;11.770;2022-12-18T01:22:59;37.00;;;21.50;;
14849;SDS011;7517;48.400;11.770;2022-12-18T01:25:26;33.17;;;19.10;;
14849;SDS011;7517;48.400;11.770;2022-12-18T01:27:53;35.87;;;20.40;;
14849;SDS011;7517;48.400;11.770;2022-12-18T01:30:21;37.00;;;21.03;;
14849;SDS011;7517;48.400;11.770;2022-12-18T01:32:48;34.57;;;20.07;;
14849;SDS011;7517;48.400;11.770;2022-12-18T01:35:15;32.87;;;19.27;;
14849;SDS011;7517;48.400;11.770;2022-12-18T01:37:44;38.27;;;21.60;;
14849;SDS011;7517;48.400;11.770;2022-12-18T01:40:11;39.57;;;19.87;;
14849;SDS011;7517;48.400;11.770;2022-12-18T01:42:39;38.60;;;21.00;;
14849;SDS011;7517;48.400;11.770;2022-12-18T01:45:08;41.33;;;22.23;;
14849;SDS011;7517;48.400;11.770;2022-12-18T01:47:52;40.17;;;21.83;;
14849;SDS011;7517;48.400;11.770;2022-12-18T01:50:23;35.70;;;21.37;;
14849;SDS011;7517;48.400;11.770;2022-12-18T01:52:58;36.80;;;21.13;;
14849;SDS011;7517;48.400;11.770;2022-12-18T01:55:35;33.70;;;20.20;;
14849;SDS011;7517;48.400;11.770;2022-12-18T01:58:06;35.87;;;20.53;;
14849;SDS011;7517;48.400;11.770;2022-12-18T02:00:34;36.07;;;21.70;;
14849;SDS011;7517;48.400;11.770;2022-12-18T02:03:01;33.83;;;20.20;;
14849;SDS011;7517;48.400;11.770;2022-12-18T02:05:35;31.47;;;18.90;;
14849;SDS011;7517;48.400;11.770;2022-12-18T02:08:13;32.30;;;19.03;;
14849;SDS011;7517;48.400;11.770;2022-12-18T02:10:48;32.33;;;19.70;;
14849;SDS011;7517;48.400;11.770;2022-12-18T02:13:27;33.77;;;20.40;;
14849;SDS011;7517;48.400;11.770;2022-12-18T02:16:08;33.20;;;19.07;;
14849;SDS011;7517;48.400;11.770;2022-12-18T02:18:48;32.80;;;20.33;;
14849;SDS011;7517;48.400;11.770;2022-12-18T02:21:22;34.90;;;19.77;;
14849;SDS011;7517;48.400;11.770;2022-12-18T02:24:07;34.03;;;19.93;;
14849;SDS011;7517;48.400;11.770;2022-12-18T02:26:49;34.57;;;19.00;;
14849;SDS011;7517;48.400;11.770;2022-12-18T02:29:22;31.77;;;19.77;;
14849;SDS011;7517;48.400;11.770;2022-12-18T02:31:56;35.47;;;19.43;;
14849;SDS011;7517;48.400;11.770;2022-12-18T02:34:28;33.47;;;18.67;;
14849;SDS011;7517;48.400;11.770;2022-12-18T02:37:02;35.17;;;19.17;;
14849;SDS011;7517;48.400;11.770;2022-12-18T02:39:34;35.07;;;20.33;;
14849;SDS011;7517;48.400;11.770;2022-12-18T02:42:04;32.13;;;19.80;;
14849;SDS011;7517;48.400;11.770;2022-12-18T02:44:33;33.03;;;19.20;;
14849;SDS011;7517;48.400;11.770;2022-12-18T02:47:01;34.63;;;20.37;;
14849;SDS011;7517;48.400;11.770;2022-12-18T02:49:31;31.40;;;18.77;;
14849;SDS011;7517;48.400;11.770;2022-12-18T02:52:08;34.10;;;20.00;;
14849;SDS011;7517;48.400;11.770;2022-12-18T02:54:56;29.53;;;17.80;;
14849;SDS011;7517;48.400;11.770;2022-12-18T02:57:37;32.33;;;18.63;;
14849;SDS011;7517;48.400;11.770;2022-12-18T03:00:14;30.50;;;17.87;;
14849;SDS011;7517;48.400;11.770;2022-12-18T03:02:47;31.60;;;18.53;;
14849;SDS011;7517;48.400;11.770;2022-12-18T03:05:22;30.30;;;17.67;;
14849;SDS011;7517;48.400;11.770;2022-12-18T03:07:56;28.57;;;17.50;;
14849;SDS011;7517;48.400;11.770;2022-12-18T03:10:30;32.10;;;19.17;;
14849;SDS011;7517;48.400;11.770;2022-12-18T03:13:06;28.70;;;18.23;;
14849;SDS011;7517;48.400;11.770;2022-12-18T03:15:41;29.07;;;17.80;;
14849;SDS011;7517;48.400;11.770;2022-12-18T03:18:13;30.40;;;17.83;;
14849;SDS011;7517;48.400;11.770;2022-12-18T03:20:46;27.23;;;17.00;;
14849;SDS011;7517;48.400;11.770;2022-12-18T03:23:17;26.37;;;15.90;;
14849;SDS011;7517;48.400;11.770;2022-12-18T03:25:49;30.70;;;17.63;;
14849;SDS011;7517;48.400;11.770;2022-12-18T03:28:22;30.50;;;17.87;;
14849;SDS011;7517;48.400;11.770;2022-12-18T03:30:50;31.13;;;18.97;;
14849;SDS011;7517;48.400;11.770;2022-12-18T03:33:25;31.30;;;18.30;;
14849;SDS011;7517;48.400;11.770;2022-12-18T03:35:57;28.17;;;17.47;;
14849;SDS011;7517;48.400;11.770;2022-12-18T03:38:25;24.80;;;15.67;;
14849;SDS011;7517;48.400;11.770;2022-12-18T03:40:53;22.43;;;14.60;;
14849;SDS011;7517;48.400;11.770;2022-12-18T03:43:34;24.70;;;14.50;;
14849;SDS011;7517;48.400;11.770;2022-12-18T03:46:15;24.00;;;15.33;;
14849;SDS011;7517;48.400;11.770;2022-12-18T03:48:53;23.20;;;13.63;;
14849;SDS011;7517;48.400;11.770;2022-12-18T03:51:34;19.47;;;12.97;;
14849;SDS011;7517;48.400;11.770;2022-12-18T03:54:08;21.10;;;13.37;;
14849;SDS011;7517;48.400;11.770;2022-12-18T03:56:38;22.10;;;14.73;;
14849;SDS011;7517;48.400;11.770;2022-12-18T03:59:16;24.03;;;14.63;;
14849;SDS011;7517;48.400;11.770;2022-12-18T04:01:46;23.80;;;14.63;;
14849;SDS011;7517;48.400;11.770;2022-12-18T04:04:16;25.57;;;16.00;;
14849;SDS011;7517;48.400;11.770;2022-12-18T04:06:45;30.53;;;16.07;;
14849;SDS011;7517;48.400;11.770;2022-12-18T04:09:15;29.33;;;16.87;;
14849;SDS011;7517;48.400;11.770;2022-12-18T04:11:44;27.07;;;16.47;;
14849;SDS011;7517;48.400;11.770;2022-12-18T04:14:12;32.53;;;18.73;;
14849;SDS011;7517;48.400;11.770;2022-12-18T04:16:41;31.20;;;17.50;;
14849;SDS011;7517;48.400;11.770;2022-12-18T04:19:08;30.17;;;18.30;;
14849;SDS011;7517;48.400;11.770;2022-12-18T04:21:35;27.83;;;16.33;;
14849;SDS011;7517;48.400;11.770;2022-12-18T04:24:02;28.17;;;17.17;;
14849;SDS011;7517;48.400;11.770;2022-12-18T04:26:30;30.33;;;17.17;;
14849;SDS011;7517;48.400;11.770;2022-12-18T04:28:57;33.20;;;18.37;;
14849;SDS011;7517;48.400;11.770;2022-12-18T04:31:25;31.10;;;18.43;;
14849;SDS011;7517;48.400;11.770;2022-12-18T04:33:55;28.70;;;16.93;;
14849;SDS011;7517;48.400;11.770;2022-12-18T04:36:22;29.17;;;16.93;;
14849;SDS011;7517;48.400;11.770;2022-12-18T04:38:49;25.33;;;15.60;;
14849;SDS011;7517;48.400;11.770;2022-12-18T04:41:16;28.60;;;17.03;;
14849;SDS011;7517;48.400;11.770;2022-12-18T04:43:43;26.27;;;14.87;;
14849;SDS011;7517;48.400;11.770;2022-12-18T04:46:11;26.87;;;15.77;;
14849;SDS011;7517;48.400;11.770;2022-12-18T04:48:38;22.37;;;14.87;;
14849;SDS011;7517;48.400;11.770;2022-12-18T04:51:06;24.97;;;14.57;;
14849;SDS011;7517;48.400;11.770;2022-12-18T04:53:34;23.80;;;15.57;;
14849;SDS011;7517;48.400;11.770;2022-12-18T04:56:03;26.47;;;15.90;;
14849;SDS011;7517;48.400;11.770;2022-12-18T04:58:33;27.17;;;15.50;;
14849;SDS011;7517;48.400;11.770;2022-12-18T05:01:01;27.43;;;15.43;;
14849;SDS011;7517;48.400;11.770;2022-12-18T05:03:31;23.63;;;13.37;;
14849;SDS011;7517;48.400;11.770;2022-12-18T05:09:34;17.70;;;11.53;;
14849;SDS011;7517;48.400;11.770;2022-12-18T05:12:02;21.87;;;14.17;;
14849;SDS011;7517;48.400;11.770;2022-12-18T05:14:29;22.57;;;13.97;;
14849;SDS011;7517;48.400;11.770;2022-12-18T05:16:57;27.53;;;15.67;;
14849;SDS011;7517;48.400;11.770;2022-12-18T05:19:24;26.73;;;14.80;;
14849;SDS011;7517;48.400;11.770;2022-12-18T05:21:51;29.53;;;15.97;;
14849;SDS011;7517;48.400;11.770;2022-12-18T05:24:20;28.53;;;16.53;;
14849;SDS011;7517;48.400;11.770;2022-12-18T05:26:47;29.50;;;17.10;;
14849;SDS011;7517;48.400;11.770;2022-12-18T05:29:14;31.20;;;18.73;;
14849;SDS011;7517;48.400;11.770;2022-12-18T05:31:42;28.03;;;17.57;;
14849;SDS011;7517;48.400;11.770;2022-12-18T05:34:09;27.57;;;16.30;;
14849;SDS011;7517;48.400;11.770;2022-12-18T05:36:36;28.90;;;16.40;;
14849;SDS011;7517;48.400;11.770;2022-12-18T05:39:05;31.13;;;15.67;;
14849;SDS011;7517;48.400;11.770;2022-12-18T05:41:32;26.63;;;16.37;;
14849;SDS011;7517;48.400;11.770;2022-12-18T05:44:00;25.60;;;16.10;;
14849;SDS011;7517;48.400;11.770;2022-12-18T05:46:27;24.43;;;14.73;;
14849;SDS011;7517;48.400;11.770;2022-12-18T05:48:58;26.70;;;16.27;;
14849;SDS011;7517;48.400;11.770;2022-12-18T05:51:26;28.43;;;16.47;;
14849;SDS011;7517;48.400;11.770;2022-12-18T05:53:53;24.60;;;15.50;;
14849;SDS011;7517;48.400;11.770;2022-12-18T05:56:22;25.77;;;15.53;;
14849;SDS011;7517;48.400;11.770;2022-12-18T05:58:51;26.03;;;15.83;;
14849;SDS011;7517;48.400;11.770;2022-12-18T06:01:20;25.63;;;15.70;;
14849;SDS011;7517;48.400;11.770;2022-12-18T06:03:50;24.50;;;14.53;;
14849;SDS011;7517;48.400;11.770;2022-12-18T06:06:18;23.77;;;14.50;;
14849;SDS011;7517;48.400;11.770;2022-12-18T06:08:47;23.60;;;14.50;;
14849;SDS011;7517;48.400;11.770;2022-12-18T06:11:16;21.97;;;13.37;;
14849;SDS011;7517;48.400;11.770;2022-12-18T06:13:49;20.50;;;13.13;;
14849;SDS011;7517;48.400;11.770;2022-12-18T06:16:17;20.57;;;12.60;;
14849;SDS011;7517;48.400;11.770;2022-12-18T06:18:44;22.70;;;12.60;;
14849;SDS011;7517;48.400;11.770;2022-12-18T06:21:12;20.63;;;12.37;;
14849;SDS011;7517;48.400;11.770;2022-12-18T06:23:39;20.33;;;12.57;;
14849;SDS011;7517;48.400;11.770;2022-12-18T06:26:07;23.00;;;13.00;;
14849;SDS011;7517;48.400;11.770;2022-12-18T06:28:36;21.00;;;12.90;;
14849;SDS011;7517;48.400;11.770;2022-12-18T06:31:05;21.83;;;13.07;;
14849;SDS011;7517;48.400;11.770;2022-12-18T06:33:34;23.87;;;14.87;;
14849;SDS011;7517;48.400;11.770;2022-12-18T06:36:02;21.33;;;13.07;;
14849;SDS011;7517;48.400;11.770;2022-12-18T06:38:32;23.33;;;14.57;;
14849;SDS011;7517;48.400;11.770;2022-12-18T06:41:05;22.47;;;14.63;;
14849;SDS011;7517;48.400;11.770;2022-12-18T06:43:37;25.43;;;15.07;;
14849;SDS011;7517;48.400;11.770;2022-12-18T06:46:05;24.47;;;14.80;;
14849;SDS011;7517;48.400;11.770;2022-12-18T06:48:33;24.07;;;14.53;;
14849;SDS011;7517;48.400;11.770;2022-12-18T06:51:00;22.33;;;13.67;;
14849;SDS011;7517;48.400;11.770;2022-12-18T06:53:33;20.30;;;13.70;;
14849;SDS011;7517;48.400;11.770;2022-12-18T06:56:01;22.23;;;13.53;;
14849;SDS011;7517;48.400;11.770;2022-12-18T06:58:29;21.37;;;13.60;;
14849;SDS011;7517;48.400;11.770;2022-12-18T07:00:59;22.30;;;13.53;;
14849;SDS011;7517;48.400;11.770;2022-12-18T07:03:28;25.57;;;14.07;;
14849;SDS011;7517;48.400;11.770;2022-12-18T07:05:56;21.73;;;13.33;;
14849;SDS011;7517;48.400;11.770;2022-12-18T07:08:23;24.87;;;14.33;;
14849;SDS011;7517;48.400;11.770;2022-12-18T07:10:50;23.83;;;14.27;;
14849;SDS011;7517;48.400;11.770;2022-12-18T07:13:19;22.63;;;14.33;;
14849;SDS011;7517;48.400;11.770;2022-12-18T07:15:46;21.80;;;13.80;;
14849;SDS011;7517;48.400;11.770;2022-12-18T07:18:13;24.13;;;14.33;;
14849;SDS011;7517;48.400;11.770;2022-12-18T07:20:41;20.27;;;12.23;;
14849;SDS011;7517;48.400;11.770;2022-12-18T07:23:10;20.50;;;12.27;;
14849;SDS011;7517;48.400;11.770;2022-12-18T07:25:37;18.87;;;12.17;;
14849;SDS011;7517;48.400;11.770;2022-12-18T07:28:04;18.17;;;12.30;;
14849;SDS011;7517;48.400;11.770;2022-12-18T07:30:31;19.17;;;12.30;;
14849;SDS011;7517;48.400;11.770;2022-12-18T07:32:59;18.00;;;12.10;;
14849;SDS011;7517;48.400;11.770;2022-12-18T07:35:26;18.63;;;12.00;;
14849;SDS011;7517;48.400;11.770;2022-12-18T07:37:54;18.20;;;12.50;;
14849;SDS011;7517;48.400;11.770;2022-12-18T07:40:25;20.23;;;12.97;;
14849;SDS011;7517;48.400;11.770;2022-12-18T07:42:52;18.83;;;11.70;;
14849;SDS011;7517;48.400;11.770;2022-12-18T07:45:19;19.17;;;12.37;;
14849;SDS011;7517;48.400;11.770;2022-12-18T07:47:46;19.00;;;12.23;;
14849;SDS011;7517;48.400;11.770;2022-12-18T07:50:13;18.10;;;11.53;;
14849;SDS011;7517;48.400;11.770;2022-12-18T07:52:41;18.80;;;12.87;;
14849;SDS011;7517;48.400;11.770;2022-12-18T07:55:10;18.33;;;11.50;;
14849;SDS011;7517;48.400;11.770;2022-12-18T07:57:37;20.33;;;12.70;;
14849;SDS011;7517;48.400;11.770;2022-12-18T08:00:05;21.93;;;12.57;;
14849;SDS011;7517;48.400;11.770;2022-12-18T08:02:33;20.03;;;12.97;;
14849;SDS011;7517;48.400;11.770;2022-12-18T08:05:00;22.03;;;13.87;;
14849;SDS011;7517;48.400;11.770;2022-12-18T08:07:27;20.23;;;12.67;;
14849;SDS011;7517;48.400;11.770;2022-12-18T08:09:54;18.40;;;12.10;;
14849;SDS011;7517;48.400;11.770;2022-12-18T08:12:23;19.90;;;13.67;;
14849;SDS011;7517;48.400;11.770;2022-12-18T08:14:50;20.27;;;12.13;;
14849;SDS011;7517;48.400;11.770;2022-12-18T08:17:19;19.90;;;12.60;;
14849;SDS011;7517;48.400;11.770;2022-12-18T08:19:46;17.50;;;12.20;;
14849;SDS011;7517;48.400;11.770;2022-12-18T08:22:33;20.63;;;13.00;;
14849;SDS011;7517;48.400;11.770;2022-12-18T08:25:01;19.30;;;13.13;;
14849;SDS011;7517;48.400;11.770;2022-12-18T08:27:30;22.03;;;13.70;;
14849;SDS011;7517;48.400;11.770;2022-12-18T08:29:58;22.23;;;13.57;;
14849;SDS011;7517;48.400;11.770;2022-12-18T08:32:26;20.63;;;12.83;;
14849;SDS011;7517;48.400;11.770;2022-12-18T08:34:54;19.57;;;13.03;;
14849;SDS011;7517;48.400;11.770;2022-12-18T08:37:21;19.57;;;13.33;;
14849;SDS011;7517;48.400;11.770;2022-12-18T08:39:48;22.10;;;13.27;;
14849;SDS011;7517;48.400;11.770;2022-12-18T08:42:16;20.53;;;13.00;;
14849;SDS011;7517;48.400;11.770;2022-12-18T08:45:03;18.67;;;12.30;;
14849;SDS011;7517;48.400;11.770;2022-12-18T08:47:32;19.23;;;12.57;;
14849;SDS011;7517;48.400;11.770;2022-12-18T08:49:59;21.33;;;13.23;;
14849;SDS011;7517;48.400;11.770;2022-12-18T08:52:26;21.57;;;14.20;;
14849;SDS011;7517;48.400;11.770;2022-12-18T08:54:53;21.83;;;13.97;;
14849;SDS011;7517;48.400;11.770;2022-12-18T08:57:21;19.37;;;12.83;;
14849;SDS011;7517;48.400;11.770;2022-12-18T08:59:48;23.80;;;14.27;;
14849;SDS011;7517;48.400;11.770;2022-12-18T09:02:20;19.17;;;13.50;;
14849;SDS011;7517;48.400;11.770;2022-12-18T09:04:52;20.07;;;13.03;;
14849;SDS011;7517;48.400;11.770;2022-12-18T09:07:20;22.37;;;13.77;;
14849;SDS011;7517;48.400;11.770;2022-12-18T09:09:52;22.13;;;14.17;;
14849;SDS011;7517;48.400;11.770;2022-12-18T09:12:20;23.03;;;14.83;;
14849;SDS011;7517;48.400;11.770;2022-12-18T09:14:59;20.70;;;13.07;;
14849;SDS011;7517;48.400;11.770;2022-12-18T09:17:28;22.33;;;14.50;;
14849;SDS011;7517;48.400;11.770;2022-12-18T09:19:59;19.00;;;12.80;;
14849;SDS011;7517;48.400;11.770;2022-12-18T09:22:56;22.37;;;13.73;;
14849;SDS011;7517;48.400;11.770;2022-12-18T09:25:37;18.80;;;12.47;;
14849;SDS011;7517;48.400;11.770;2022-12-18T09:28:06;22.07;;;13.07;;
14849;SDS011;7517;48.400;11.770;2022-12-18T09:30:42;21.17;;;13.83;;
14849;SDS011;7517;48.400;11.770;2022-12-18T09:33:25;20.37;;;12.60;;
14849;SDS011;7517;48.400;11.770;2022-12-18T09:36:00;18.57;;;12.53;;
14849;SDS011;7517;48.400;11.770;2022-12-18T09:38:30;20.33;;;13.50;;
14849;SDS011;7517;48.400;11.770;2022-12-18T09:41:03;21.07;;;13.40;;
14849;SDS011;7517;48.400;11.770;2022-12-18T09:43:58;22.63;;;14.03;;
14849;SDS011;7517;48.400;11.770;2022-12-18T09:46:32;23.70;;;14.17;;
14849;SDS011;7517;48.400;11.770;2022-12-18T09:49:16;20.23;;;13.57;;
14849;SDS011;7517;48.400;11.770;2022-12-18T09:51:52;22.83;;;14.37;;
14849;SDS011;7517;48.400;11.770;2022-12-18T09:54:46;20.43;;;13.13;;
14849;SDS011;7517;48.400;11.770;2022-12-18T09:57:31;20.73;;;13.93;;
14849;SDS011;7517;48.400;11.770;2022-12-18T10:00:15;21.03;;;13.87;;
14849;SDS011;7517;48.400;11.770;2022-12-18T10:02:46;21.33;;;13.80;;
14849;SDS011;7517;48.400;11.770;2022-12-18T10:05:24;21.13;;;13.80;;
14849;SDS011;7517;48.400;11.770;2022-12-18T10:08:10;21.67;;;14.70;;
14849;SDS011;7517;48.400;11.770;2022-12-18T10:10:46;21.83;;;13.60;;
14849;SDS011;7517;48.400;11.770;2022-12-18T10:13:23;24.67;;;15.00;;
14849;SDS011;7517;48.400;11.770;2022-12-18T10:16:08;19.43;;;12.90;;
14849;SDS011;7517;48.400;11.770;2022-12-18T10:18:51;19.60;;;13.13;;
14849;SDS011;7517;48.400;11.770;2022-12-18T10:21:39;19.23;;;12.90;;
14849;SDS011;7517;48.400;11.770;2022-12-18T10:24:19;20.23;;;13.00;;
14849;SDS011;7517;48.400;11.770;2022-12-18T10:26:59;21.10;;;13.93;;
14849;SDS011;7517;48.400;11.770;2022-12-18T10:29:42;20.20;;;12.97;;
14849;SDS011;7517;48.400;11.770;2022-12-18T10:32:13;20.30;;;12.83;;
14849;SDS011;7517;48.400;11.770;2022-12-18T10:34:47;23.00;;;14.40;;
14849;SDS011;7517;48.400;11.770;2022-12-18T10:37:35;20.57;;;14.13;;
14849;SDS011;7517;48.400;11.770;2022-12-18T10:40:23;21.07;;;13.67;;
14849;SDS011;7517;48.400;11.770;2022-12-18T10:42:59;21.47;;;14.07;;
14849;SDS011;7517;48.400;11.770;2022-12-18T10:45:32;19.60;;;13.30;;
14849;SDS011;7517;48.400;11.770;2022-12-18T10:48:01;20.50;;;14.27;;
14849;SDS011;7517;48.400;11.770;2022-12-18T10:50:59;18.30;;;12.30;;
14849;SDS011;7517;48.400;11.770;2022-12-18T10:53:32;19.20;;;13.33;;
14849;SDS011;7517;48.400;11.770;2022-12-18T10:56:04;18.80;;;13.00;;
14849;SDS011;7517;48.400;11.770;2022-12-18T10:58:54;18.80;;;13.43;;
14849;SDS011;7517;48.400;11.770;2022-12-18T11:01:27;17.90;;;12.57;;
14849;SDS011;7517;48.400;11.770;2022-12-18T11:04:17;18.83;;;12.97;;
14849;SDS011;7517;48.400;11.770;2022-12-18T11:07:08;18.57;;;12.83;;
14849;SDS011;7517;48.400;11.770;2022-12-18T11:09:38;17.83;;;12.63;;
14849;SDS011;7517;48.400;11.770;2022-12-18T11:12:15;19.20;;;12.77;;
14849;SDS011;7517;48.400;11.770;2022-12-18T11:14:48;19.03;;;12.27;;
14849;SDS011;7517;48.400;11.770;2022-12-18T11:17:28;18.23;;;11.00;;
14849;SDS011;7517;48.400;11.770;2022-12-18T11:20:03;19.00;;;11.60;;
14849;SDS011;7517;48.400;11.770;2022-12-18T11:22:56;18.80;;;11.50;;
14849;SDS011;7517;48.400;11.770;2022-12-18T11:25:27;18.33;;;11.10;;
14849;SDS011;7517;48.400;11.770;2022-12-18T11:27:59;19.37;;;12.80;;
14849;SDS011;7517;48.400;11.770;2022-12-18T11:30:29;17.20;;;11.17;;
14849;SDS011;7517;48.400;11.770;2022-12-18T11:32:59;17.13;;;11.67;;
14849;SDS011;7517;48.400;11.770;2022-12-18T11:35:39;17.73;;;11.33;;
14849;SDS011;7517;48.400;11.770;2022-12-18T11:38:21;18.10;;;11.63;;
14849;SDS011;7517;48.400;11.770;2022-12-18T11:41:15;17.07;;;11.30;;
14849;SDS011;7517;48.400;11.770;2022-12-18T11:44:33;18.40;;;12.57;;
14849;SDS011;7517;48.400;11.770;2022-12-18T11:47:44;17.23;;;11.87;;
14849;SDS011;7517;48.400;11.770;2022-12-18T11:51:01;16.73;;;11.97;;
14849;SDS011;7517;48.400;11.770;2022-12-18T11:54:10;15.73;;;10.83;;
14849;SDS011;7517;48.400;11.770;2022-12-18T12:00:35;17.67;;;11.73;;
14849;SDS011;7517;48.400;11.770;2022-12-18T12:06:49;15.73;;;11.53;;
14849;SDS011;7517;48.400;11.770;2022-12-18T12:09:39;16.73;;;11.00;;
14849;SDS011;7517;48.400;11.770;2022-12-18T12:12:26;16.93;;;10.40;;
14849;SDS011;7517;48.400;11.770;2022-12-18T12:15:27;15.63;;;10.80;;
14849;SDS011;7517;48.400;11.770;2022-12-18T12:18:09;18.67;;;10.93;;
14849;SDS011;7517;48.400;11.770;2022-12-18T12:20:53;16.43;;;10.70;;
14849;SDS011;7517;48.400;11.770;2022-12-18T12:23:38;19.27;;;11.93;;
14849;SDS011;7517;48.400;11.770;2022-12-18T12:26:21;17.43;;;12.40;;
14849;SDS011;7517;48.400;11.770;2022-12-18T12:29:07;18.50;;;11.67;;
14849;SDS011;7517;48.400;11.770;2022-12-18T12:32:00;17.30;;;12.70;;
14849;SDS011;7517;48.400;11.770;2022-12-18T12:34:48;16.40;;;11.50;;
14849;SDS011;7517;48.400;11.770;2022-12-18T12:37:40;17.00;;;12.27;;
14849;SDS011;7517;48.400;11.770;2022-12-18T12:40:26;15.13;;;10.97;;
14849;SDS011;7517;48.400;11.770;2022-12-18T12:43:01;17.93;;;12.57;;
14849;SDS011;7517;48.400;11.770;2022-12-18T12:45:47;16.53;;;10.90;;
14849;SDS011;7517;48.400;11.770;2022-12-18T12:48:33;17.50;;;11.63;;
14849;SDS011;7517;48.400;11.770;2022-12-18T12:51:15;17.30;;;11.43;;
14849;SDS011;7517;48.400;11.770;2022-12-18T12:53:48;18.23;;;11.60;;
14849;SDS011;7517;48.400;11.770;2022-12-18T12:56:18;16.97;;;11.40;;
14849;SDS011;7517;48.400;11.770;2022-12-18T12:58:58;18.53;;;11.07;;
14849;SDS011;7517;48.400;11.770;2022-12-18T13:01:37;17.20;;;11.30;;
14849;SDS011;7517;48.400;11.770;2022-12-18T13:04:23;14.97;;;11.07;;
14849;SDS011;7517;48.400;11.770;2022-12-18T13:07:12;16.07;;;10.97;;
14849;SDS011;7517;48.400;11.770;2022-12-18T13:13:00;16.80;;;10.83;;
14849;SDS011;7517;48.400;11.770;2022-12-18T13:15:33;16.47;;;11.67;;
14849;SDS011;7517;48.400;11.770;2022-12-18T13:18:14;16.00;;;10.53;;
14849;SDS011;7517;48.400;11.770;2022-12-18T13:23:49;16.33;;;10.70;;
14849;SDS011;7517;48.400;11.770;2022-12-18T13:26:28;15.80;;;10.17;;
14849;SDS011;7517;48.400;11.770;2022-12-18T13:29:39;17.80;;;11.47;;
14849;SDS011;7517;48.400;11.770;2022-12-18T13:32:21;15.37;;;10.93;;
14849;SDS011;7517;48.400;11.770;2022-12-18T13:38:18;16.80;;;12.57;;
14849;SDS011;7517;48.400;11.770;2022-12-18T13:40:53;18.37;;;11.93;;
14849;SDS011;7517;48.400;11.770;2022-12-18T13:43:27;17.17;;;11.63;;
14849;SDS011;7517;48.400;11.770;2022-12-18T13:46:06;18.17;;;12.13;;
14849;SDS011;7517;48.400;11.770;2022-12-18T13:48:54;18.33;;;11.43;;
14849;SDS011;7517;48.400;11.770;2022-12-18T13:51:28;16.93;;;11.27;;
14849;SDS011;7517;48.400;11.770;2022-12-18T13:54:00;13.33;;;9.80;;
14849;SDS011;7517;48.400;11.770;2022-12-18T13:56:44;15.90;;;10.90;;
14849;SDS011;7517;48.400;11.770;2022-12-18T13:59:15;17.30;;;10.73;;
14849;SDS011;7517;48.400;11.770;2022-12-18T14:02:15;16.27;;;10.50;;
14849;SDS011;7517;48.400;11.770;2022-12-18T14:04:50;18.03;;;10.73;;
14849;SDS011;7517;48.400;11.770;2022-12-18T14:09:37;15.87;;;10.07;;
14849;SDS011;7517;48.400;11.770;2022-12-18T14:10:49;14.13;;;10.37;;
14849;SDS011;7517;48.400;11.770;2022-12-18T14:13:29;15.73;;;10.53;;
14849;SDS011;7517;48.400;11.770;2022-12-18T14:16:01;15.70;;;10.20;;
14849;SDS011;7517;48.400;11.770;2022-12-18T14:18:36;15.33;;;10.60;;
14849;SDS011;7517;48.400;11.770;2022-12-18T14:21:18;16.73;;;10.80;;
14849;SDS011;7517;48.400;11.770;2022-12-18T14:24:03;15.03;;;9.63;;
14849;SDS011;7517;48.400;11.770;2022-12-18T14:26:46;17.60;;;11.00;;
14849;SDS011;7517;48.400;11.770;2022-12-18T14:29:19;15.57;;;10.57;;
14849;SDS011;7517;48.400;11.770;2022-12-18T14:34:39;16.10;;;10.83;;
14849;SDS011;7517;48.400;11.770;2022-12-18T14:37:09;15.10;;;11.17;;
14849;SDS011;7517;48.400;11.770;2022-12-18T14:39:38;17.13;;;11.03;;
14849;SDS011;7517;48.400;11.770;2022-12-18T14:42:21;15.70;;;10.47;;
14849;SDS011;7517;48.400;11.770;2022-12-18T14:48:00;18.47;;;11.93;;
14849;SDS011;7517;48.400;11.770;2022-12-18T14:50:35;19.30;;;12.77;;
14849;SDS011;7517;48.400;11.770;2022-12-18T14:53:04;17.90;;;11.93;;
14849;SDS011;7517;48.400;11.770;2022-12-18T14:55:47;19.00;;;12.27;;
14849;SDS011;7517;48.400;11.770;2022-12-18T14:58:16;16.43;;;11.93;;
14849;SDS011;7517;48.400;11.770;2022-12-18T15:00:44;15.23;;;10.90;;
14849;SDS011;7517;48.400;11.770;2022-12-18T15:03:13;17.83;;;12.13;;
14849;SDS011;7517;48.400;11.770;2022-12-18T15:05:46;16.60;;;11.27;;
14849;SDS011;7517;48.400;11.770;2022-12-18T15:08:24;16.57;;;12.13;;
14849;SDS011;7517;48.400;11.770;2022-12-18T15:10:57;18.10;;;11.63;;
14849;SDS011;7517;48.400;11.770;2022-12-18T15:13:26;15.97;;;11.67;;
14849;SDS011;7517;48.400;11.770;2022-12-18T15:15:53;16.57;;;11.03;;
14849;SDS011;7517;48.400;11.770;2022-12-18T15:18:25;16.90;;;11.93;;
14849;SDS011;7517;48.400;11.770;2022-12-18T15:20:58;20.60;;;12.57;;
14849;SDS011;7517;48.400;11.770;2022-12-18T15:23:35;17.07;;;11.10;;
14849;SDS011;7517;48.400;11.770;2022-12-18T15:26:13;17.63;;;11.23;;